createdAt,value
2018-09-27T09:25:17.025Z,39.32
2018-09-27T09:26:16.971Z,39.42
2018-09-27T09:28:49.367Z,40.10
2018-09-27T09:29:49.353Z,39.69
2018-09-27T09:30:49.320Z,40.68
2018-09-27T09:31:49.307Z,39.86
2018-09-27T09:32:49.294Z,39.37
2018-09-27T09:33:49.344Z,38.77
2018-09-27T09:34:49.273Z,38.65
2018-09-27T09:35:49.283Z,39.05
2018-09-27T09:36:49.251Z,38.95
2018-09-27T09:37:49.245Z,38.75
2018-09-27T09:38:49.226Z,38.45
2018-09-27T09:39:49.230Z,38.65
2018-09-27T09:40:49.213Z,38.65
2018-09-27T09:41:49.213Z,38.65
2018-09-27T09:42:49.227Z,38.93
2018-09-27T09:43:49.176Z,38.93
2018-09-27T09:44:49.224Z,38.93
2018-09-27T09:45:49.185Z,38.73
2018-09-27T09:46:49.146Z,39.53
2018-09-27T09:47:49.150Z,38.64
2018-09-27T09:48:49.125Z,38.54
2018-09-27T09:49:49.107Z,38.73
2018-09-27T09:50:49.115Z,38.54
2018-09-27T09:51:49.091Z,38.32
2018-09-27T09:52:49.079Z,38.42
2018-09-27T09:53:49.060Z,38.62
2018-09-27T09:54:49.055Z,38.62
2018-09-27T09:55:49.055Z,39.21
2018-09-27T09:56:49.027Z,38.92
2018-09-27T09:57:49.025Z,38.71
2018-09-27T09:58:49.012Z,38.62
2018-09-27T09:59:48.998Z,38.73
2018-09-27T10:00:49.012Z,39.03
2018-09-27T10:01:48.971Z,38.54
2018-09-27T10:02:48.988Z,38.64
2018-09-27T10:03:48.974Z,38.43
2018-09-27T10:04:48.945Z,38.54
2018-09-27T10:05:48.984Z,38.34
2018-09-27T10:06:48.967Z,39.23
2018-09-27T10:07:48.947Z,38.73
2018-09-27T10:08:48.963Z,39.13
2018-09-27T10:09:48.905Z,39.35
2018-09-27T10:10:48.871Z,39.15
2018-09-27T10:11:48.876Z,39.15
2018-09-27T10:12:48.881Z,39.37
2018-09-27T10:13:48.842Z,38.95
2018-09-27T10:14:48.839Z,39.45
2018-09-27T10:15:48.818Z,39.45
2018-09-27T10:16:48.809Z,38.95
2018-09-27T10:17:48.824Z,39.57
2018-09-27T10:18:48.818Z,39.47
2018-09-27T10:19:48.783Z,39.27
2018-09-27T10:20:48.759Z,39.76
2018-09-27T10:21:48.890Z,39.97
2018-09-27T10:22:48.750Z,39.67
2018-09-27T10:23:48.756Z,39.47
2018-09-27T10:24:48.719Z,39.86
2018-09-27T10:25:48.717Z,39.57
2018-09-27T10:26:48.714Z,39.67
2018-09-27T10:27:48.692Z,39.07
2018-09-27T10:28:48.704Z,39.39
2018-09-27T10:29:48.697Z,39.69
2018-09-27T10:30:48.701Z,40.58
2018-09-27T10:31:48.690Z,40.48
2018-09-27T10:32:48.629Z,40.36
2018-09-27T10:33:48.682Z,41.06
2018-09-27T10:34:48.612Z,40.66
2018-09-27T10:35:48.604Z,40.66
2018-09-27T10:36:48.605Z,40.64
2018-09-27T10:37:48.579Z,40.84
2018-09-27T10:38:48.629Z,40.74
2018-09-27T10:39:48.570Z,40.74
2018-09-27T10:40:48.547Z,40.94
2018-09-27T10:41:48.541Z,41.14
2018-09-27T10:42:48.570Z,41.14
2018-09-27T10:43:48.552Z,41.24
2018-09-27T10:44:48.551Z,41.24
2018-09-27T10:45:48.488Z,41.04
2018-09-27T10:46:48.477Z,40.84
2018-09-27T10:47:48.492Z,41.16
2018-09-27T10:48:48.566Z,41.36
2018-09-27T10:49:48.467Z,41.25
2018-09-27T10:50:48.445Z,42.05
2018-09-27T10:51:48.453Z,42.05
2018-09-27T10:52:48.410Z,41.25
2018-09-27T10:53:48.481Z,41.16
2018-09-27T10:54:48.390Z,41.36
2018-09-27T10:55:48.378Z,41.46
2018-09-27T10:56:48.376Z,41.46
2018-09-27T10:57:48.381Z,41.16
2018-09-27T10:58:48.349Z,41.25
2018-09-27T10:59:48.357Z,41.25
2018-09-27T11:00:48.373Z,41.25
2018-09-27T11:01:48.318Z,41.95
2018-09-27T11:02:48.307Z,41.75
2018-09-27T11:03:48.292Z,42.05
2018-09-27T11:04:48.345Z,41.66
2018-09-27T11:05:48.282Z,41.25
2018-09-27T11:06:48.257Z,41.16
2018-09-27T11:07:48.250Z,42.15
2018-09-27T11:08:48.235Z,41.95
2018-09-27T11:09:48.253Z,41.85
2018-09-27T11:10:48.213Z,42.05
2018-09-27T11:11:48.208Z,42.05
2018-09-27T11:12:48.191Z,41.66
2018-09-27T11:13:48.180Z,41.75
2018-09-27T11:14:48.197Z,41.85
2018-09-27T11:15:48.172Z,41.66
2018-09-27T11:16:48.169Z,41.55
2018-09-27T11:17:48.136Z,42.45
2018-09-27T11:18:48.126Z,41.66
2018-09-27T11:19:48.120Z,41.85
2018-09-27T11:20:48.123Z,41.75
2018-09-27T11:21:48.124Z,41.75
2018-09-27T11:22:48.079Z,41.55
2018-09-27T11:23:48.068Z,42.65
2018-09-27T11:24:48.078Z,41.55
2018-09-27T11:25:48.080Z,41.75
2018-09-27T11:26:48.064Z,41.66
2018-09-27T11:27:48.055Z,41.55
2018-09-27T11:28:48.048Z,41.66
2018-09-27T11:29:48.028Z,41.95
2018-09-27T11:30:48.013Z,41.95
2018-09-27T11:31:48.002Z,41.46
2018-09-27T11:32:47.969Z,41.55
2018-09-27T11:33:47.960Z,42.15
2018-09-27T11:34:47.962Z,42.85
2018-09-27T11:35:47.939Z,43.05
2018-09-27T11:36:47.926Z,42.65
2018-09-27T11:37:47.932Z,42.55
2018-09-27T11:38:47.945Z,43.15
2018-09-27T11:39:47.936Z,42.94
2018-09-27T11:40:47.888Z,43.24
2018-09-27T11:41:47.879Z,42.85
2018-09-27T11:42:47.950Z,43.05
2018-09-27T11:43:47.885Z,42.85
2018-09-27T11:44:47.863Z,42.75
2018-09-27T11:45:47.832Z,42.75
2018-09-27T11:46:47.828Z,42.65
2018-09-27T11:47:47.827Z,42.94
2018-09-27T11:48:47.831Z,42.94
2018-09-27T11:49:47.835Z,43.05
2018-09-27T11:50:47.791Z,43.24
2018-09-27T11:51:47.760Z,43.74
2018-09-27T11:52:47.761Z,42.75
2018-09-27T11:53:47.742Z,42.94
2018-09-27T11:54:47.763Z,42.94
2018-09-27T11:55:47.725Z,42.85
2018-09-27T11:56:47.704Z,43.74
2018-09-27T11:57:47.695Z,43.15
2018-09-27T11:58:47.714Z,43.74
2018-09-27T11:59:47.668Z,42.75
2018-09-27T12:00:47.680Z,43.05
2018-09-27T12:01:47.652Z,43.15
2018-09-27T12:02:47.657Z,43.44
2018-09-27T12:03:47.645Z,43.74
2018-09-27T12:04:47.617Z,43.24
2018-09-27T12:05:47.614Z,43.16
2018-09-27T12:06:47.662Z,43.24
2018-09-27T12:07:47.590Z,43.76
2018-09-27T12:08:47.576Z,43.16
2018-09-27T12:09:47.571Z,43.15
2018-09-27T12:10:47.543Z,43.07
2018-09-27T12:11:47.558Z,43.37
2018-09-27T12:12:47.530Z,43.15
2018-09-27T12:13:47.522Z,42.86
2018-09-27T12:14:47.552Z,43.07
2018-09-27T12:15:47.494Z,42.75
2018-09-27T12:16:47.502Z,42.85
2018-09-27T12:17:47.467Z,43.16
2018-09-27T12:18:47.472Z,43.94
2018-09-27T12:19:47.551Z,42.86
2018-09-27T12:20:47.464Z,43.96
2018-09-27T12:21:47.420Z,43.16
2018-09-27T12:22:47.409Z,43.35
2018-09-27T12:23:47.398Z,43.86
2018-09-27T12:24:47.432Z,43.66
2018-09-27T12:25:47.411Z,43.76
2018-09-27T12:26:47.376Z,43.96
2018-09-27T12:27:47.352Z,44.96
2018-09-27T12:28:47.354Z,43.35
2018-09-27T12:29:47.352Z,43.16
2018-09-27T12:30:47.350Z,43.84
2018-09-27T12:31:47.315Z,43.64
2018-09-27T12:32:47.322Z,42.94
2018-09-27T12:33:47.289Z,43.15
2018-09-27T12:34:47.308Z,43.94
2018-09-27T12:35:47.315Z,43.15
2018-09-27T12:36:47.261Z,43.54
2018-09-27T12:37:47.244Z,43.24
2018-09-27T12:38:47.253Z,43.74
2018-09-27T12:39:47.230Z,43.84
2018-09-27T12:40:47.337Z,43.94
2018-09-27T12:41:47.338Z,43.15
2018-09-27T12:42:47.211Z,43.94
2018-09-27T12:43:47.177Z,44.14
2018-09-27T12:44:47.165Z,43.35
2018-09-27T12:45:47.278Z,44.34
2018-09-27T12:46:47.315Z,43.64
2018-09-27T12:47:47.141Z,44.14
2018-09-27T12:48:47.264Z,43.74
2018-09-27T12:49:47.113Z,43.35
2018-09-27T12:50:47.121Z,43.84
2018-09-27T12:51:47.327Z,43.64
2018-09-27T12:52:47.143Z,43.74
2018-09-27T12:53:47.080Z,44.04
2018-09-27T12:54:47.055Z,43.94
2018-09-27T12:55:47.070Z,44.54
2018-09-27T12:56:47.037Z,44.24
2018-09-27T12:57:47.049Z,44.54
2018-09-27T12:58:47.014Z,44.04
2018-09-27T12:59:46.996Z,44.84
2018-09-27T13:00:47.005Z,44.74
2018-09-27T13:01:47.077Z,44.74
2018-09-27T13:02:47.075Z,44.64
2018-09-27T13:03:46.965Z,44.74
2018-09-27T13:04:46.940Z,44.84
2018-09-27T13:05:46.954Z,44.56
2018-09-27T13:06:46.941Z,44.66
2018-09-27T13:07:46.922Z,44.04
2018-09-27T13:08:47.150Z,44.26
2018-09-27T13:09:47.033Z,44.84
2018-09-27T13:10:46.917Z,44.54
2018-09-27T13:11:46.866Z,44.46
2018-09-27T13:12:46.887Z,44.44
2018-09-27T13:13:46.844Z,44.93
2018-09-27T13:14:46.933Z,44.54
2018-09-27T13:15:46.855Z,44.74
2018-09-27T13:16:46.816Z,45.03
2018-09-27T13:17:46.904Z,44.56
2018-09-27T13:18:46.806Z,44.64
2018-09-27T13:19:46.891Z,44.54
2018-09-27T13:20:46.802Z,44.44
2018-09-27T13:21:46.784Z,44.54
2018-09-27T13:22:46.777Z,44.64
2018-09-27T13:23:46.754Z,44.84
2018-09-27T13:24:46.763Z,44.64
2018-09-27T13:25:46.786Z,44.64
2018-09-27T13:26:47.140Z,44.64
2018-09-27T13:27:46.701Z,44.74
2018-09-27T13:28:46.701Z,44.36
2018-09-27T13:29:46.691Z,44.56
2018-09-27T13:30:46.668Z,44.34
2018-09-27T13:31:46.686Z,44.26
2018-09-27T13:32:46.629Z,44.56
2018-09-27T13:33:46.622Z,44.56
2018-09-27T13:34:46.626Z,44.85
2018-09-27T13:35:46.607Z,44.96
2018-09-27T13:36:46.598Z,43.96
2018-09-27T13:37:46.583Z,44.06
2018-09-27T13:38:46.599Z,44.16
2018-09-27T13:39:46.609Z,43.76
2018-09-27T13:40:46.546Z,44.06
2018-09-27T13:41:46.536Z,43.86
2018-09-27T13:42:46.523Z,44.06
2018-09-27T13:43:46.545Z,44.16
2018-09-27T13:44:46.503Z,43.76
2018-09-27T13:45:46.506Z,43.76
2018-09-27T13:46:46.479Z,44.16
2018-09-27T13:47:46.494Z,44.16
2018-09-27T13:48:46.490Z,44.16
2018-09-27T13:49:46.515Z,43.88
2018-09-27T13:50:46.443Z,44.28
2018-09-27T13:51:46.472Z,44.28
2018-09-27T13:52:46.411Z,44.08
2018-09-27T13:53:46.421Z,44.08
2018-09-27T13:54:46.395Z,44.08
2018-09-27T13:55:46.374Z,44.28
2018-09-27T13:56:46.380Z,44.48
2018-09-27T13:57:46.350Z,44.58
2018-09-27T13:58:46.360Z,44.48
2018-09-27T13:59:46.348Z,44.58
2018-09-27T14:00:46.326Z,44.38
2018-09-27T14:01:46.309Z,44.98
2018-09-27T14:02:46.297Z,44.78
2018-09-27T14:03:46.289Z,44.88
2018-09-27T14:04:46.294Z,44.68
2018-09-27T14:05:46.266Z,44.68
2018-09-27T14:06:46.252Z,44.58
2018-09-27T14:07:46.237Z,44.38
2018-09-27T14:08:46.246Z,44.68
2018-09-27T14:09:46.240Z,45.18
2018-09-27T14:10:46.232Z,44.68
2018-09-27T14:11:46.192Z,45.00
2018-09-27T14:12:46.181Z,44.98
2018-09-27T14:13:46.181Z,45.00
2018-09-27T14:14:46.205Z,44.68
2018-09-27T14:15:46.186Z,44.78
2018-09-27T14:16:46.165Z,44.68
2018-09-27T14:17:46.128Z,44.70
2018-09-27T14:18:46.112Z,44.88
2018-09-27T14:19:46.116Z,45.20
2018-09-27T14:20:46.110Z,44.78
2018-09-27T14:21:46.113Z,45.20
2018-09-27T14:22:46.068Z,45.40
2018-09-27T14:23:46.073Z,45.70
2018-09-27T14:24:46.081Z,45.50
2018-09-27T14:25:46.175Z,45.70
2018-09-27T14:26:46.048Z,45.50
2018-09-27T14:27:46.082Z,45.60
2018-09-27T14:28:46.004Z,45.50
2018-09-27T14:29:46.654Z,45.50
2018-09-27T14:30:46.080Z,45.60
2018-09-27T14:31:45.989Z,45.79
2018-09-27T14:32:45.971Z,45.50
2018-09-27T14:33:45.951Z,45.70
2018-09-27T14:34:45.936Z,45.70
2018-09-27T14:35:45.964Z,45.60
2018-09-27T14:36:46.001Z,45.90
2018-09-27T14:37:45.939Z,45.50
2018-09-27T14:38:45.939Z,45.79
2018-09-27T14:39:45.876Z,45.90
2018-09-27T14:40:45.869Z,45.79
2018-09-27T14:41:45.956Z,45.79
2018-09-27T14:42:45.928Z,45.79
2018-09-27T14:43:45.832Z,45.60
2018-09-27T14:44:45.819Z,46.20
2018-09-27T14:45:45.825Z,46.01
2018-09-27T14:46:45.850Z,45.92
2018-09-27T14:47:45.837Z,45.92
2018-09-27T14:48:45.783Z,45.92
2018-09-27T14:49:45.765Z,45.90
2018-09-27T14:50:45.753Z,45.92
2018-09-27T14:51:45.746Z,45.79
2018-09-27T14:52:45.833Z,45.70
2018-09-27T14:53:45.787Z,45.70
2018-09-27T14:54:45.766Z,45.40
2018-09-27T14:55:45.696Z,45.52
2018-09-27T14:56:45.695Z,45.60
2018-09-27T14:57:45.714Z,45.42
2018-09-27T14:58:45.750Z,45.79
2018-09-27T14:59:45.668Z,45.70
2018-09-27T15:00:45.707Z,45.50
2018-09-27T15:01:45.630Z,45.72
2018-09-27T15:02:45.650Z,45.52
2018-09-27T15:03:45.657Z,45.50
2018-09-27T15:04:45.750Z,45.79
2018-09-27T15:05:45.591Z,45.52
2018-09-27T15:06:45.665Z,45.52
2018-09-27T15:07:45.562Z,45.52
2018-09-27T15:08:45.594Z,45.42
2018-09-27T15:09:45.746Z,45.72
2018-09-27T15:10:45.541Z,45.72
2018-09-27T15:11:45.517Z,45.32
2018-09-27T15:12:45.663Z,45.22
2018-09-27T15:13:45.512Z,45.32
2018-09-27T15:14:45.511Z,45.42
2018-09-27T15:15:45.470Z,45.62
2018-09-27T15:16:45.463Z,45.32
2018-09-27T15:17:45.475Z,45.32
2018-09-27T15:18:45.470Z,45.72
2018-09-27T15:19:45.432Z,45.52
2018-09-27T15:20:45.417Z,45.72
2018-09-27T15:21:45.407Z,45.62
2018-09-27T15:22:45.447Z,45.52
2018-09-27T15:23:45.391Z,45.62
2018-09-27T15:24:45.429Z,45.82
2018-09-27T15:25:45.373Z,45.52
2018-09-27T15:26:45.353Z,45.52
2018-09-27T15:27:45.347Z,45.42
2018-09-27T15:28:45.334Z,45.52
2018-09-27T15:29:45.340Z,45.72
2018-09-27T15:30:45.345Z,45.52
2018-09-27T15:31:45.353Z,45.52
2018-09-27T15:32:45.282Z,45.52
2018-09-27T15:33:45.305Z,45.52
2018-09-27T15:34:45.301Z,45.72
2018-09-27T15:35:45.256Z,45.52
2018-09-27T15:36:45.259Z,45.54
2018-09-27T15:37:45.227Z,45.52
2018-09-27T15:38:45.224Z,45.52
2018-09-27T15:39:45.211Z,45.54
2018-09-27T15:40:45.220Z,45.54
2018-09-27T15:41:45.201Z,45.52
2018-09-27T15:42:45.173Z,45.72
2018-09-27T15:43:45.160Z,45.62
2018-09-27T15:44:45.150Z,45.54
2018-09-27T15:45:45.252Z,45.54
2018-09-27T15:46:45.134Z,45.44
2018-09-27T15:47:45.118Z,45.44
2018-09-27T15:48:45.125Z,45.54
2018-09-27T15:49:45.092Z,45.54
2018-09-27T15:50:45.125Z,45.44
2018-09-27T15:51:45.075Z,45.54
2018-09-27T15:52:45.084Z,45.84
2018-09-27T15:53:45.059Z,45.74
2018-09-27T15:54:45.039Z,45.64
2018-09-27T15:55:45.074Z,45.74
2018-09-27T15:56:45.043Z,45.44
2018-09-27T15:57:45.014Z,45.54
2018-09-27T15:58:45.041Z,46.04
2018-09-27T15:59:44.981Z,45.54
2018-09-27T16:00:44.984Z,45.74
2018-09-27T16:01:44.987Z,45.64
2018-09-27T16:02:44.954Z,45.54
2018-09-27T16:03:44.951Z,45.84
2018-09-27T16:04:45.011Z,45.84
2018-09-27T16:05:44.915Z,45.94
2018-09-27T16:06:44.920Z,45.94
2018-09-27T16:07:44.898Z,46.04
2018-09-27T16:08:44.893Z,45.94
2018-09-27T16:09:44.886Z,46.04
2018-09-27T16:10:44.860Z,45.74
2018-09-27T16:11:44.975Z,46.14
2018-09-27T16:12:44.854Z,45.84
2018-09-27T16:13:44.843Z,45.74
2018-09-27T16:14:44.914Z,45.74
2018-09-27T16:15:44.806Z,45.94
2018-09-27T16:16:44.798Z,45.84
2018-09-27T16:17:44.884Z,46.14
2018-09-27T16:18:44.768Z,46.14
2018-09-27T16:19:44.794Z,46.14
2018-09-27T16:20:44.747Z,46.14
2018-09-27T16:21:44.734Z,46.24
2018-09-27T16:22:44.782Z,46.26
2018-09-27T16:23:44.727Z,46.24
2018-09-27T16:24:44.715Z,46.34
2018-09-27T16:25:44.713Z,46.16
2018-09-27T16:26:44.685Z,46.14
2018-09-27T16:27:44.754Z,46.04
2018-09-27T16:28:44.661Z,46.04
2018-09-27T16:29:44.760Z,46.04
2018-09-27T16:30:44.647Z,46.16
2018-09-27T16:31:44.630Z,46.16
2018-09-27T16:32:44.640Z,46.06
2018-09-27T16:33:44.599Z,45.96
2018-09-27T16:34:44.593Z,46.06
2018-09-27T16:35:44.692Z,45.96
2018-09-27T16:36:44.585Z,46.06
2018-09-27T16:37:44.594Z,45.96
2018-09-27T16:38:44.555Z,45.86
2018-09-27T16:39:44.532Z,46.56
2018-09-27T16:40:44.562Z,46.56
2018-09-27T16:41:44.628Z,46.16
2018-09-27T16:42:44.496Z,46.34
2018-09-27T16:43:44.502Z,46.46
2018-09-27T16:44:44.473Z,46.56
2018-09-27T16:45:44.479Z,46.06
2018-09-27T16:46:44.509Z,46.46
2018-09-27T16:47:44.514Z,46.16
2018-09-27T16:48:44.466Z,46.46
2018-09-27T16:49:44.419Z,46.56
2018-09-27T16:50:44.416Z,46.56
2018-09-27T16:51:44.412Z,46.56
2018-09-27T16:52:44.385Z,46.16
2018-09-27T16:53:44.557Z,46.16
2018-09-27T16:54:44.374Z,46.26
2018-09-27T16:55:44.368Z,46.06
2018-09-27T16:56:44.358Z,46.46
2018-09-27T16:57:44.351Z,46.48
2018-09-27T16:58:44.364Z,46.78
2018-09-27T16:59:52.253Z,45.66
2018-09-27T17:00:44.293Z,46.86
2018-09-27T17:01:44.307Z,46.66
2018-09-27T17:02:44.271Z,46.38
2018-09-27T17:03:44.262Z,46.66
2018-09-27T17:04:44.278Z,46.26
2018-09-27T17:05:44.269Z,46.28
2018-09-27T17:06:44.229Z,46.56
2018-09-27T17:07:44.222Z,46.58
2018-09-27T17:08:44.208Z,46.46
2018-09-27T17:09:44.202Z,46.26
2018-09-27T17:10:44.199Z,46.46
2018-09-27T17:11:44.172Z,46.26
2018-09-27T17:12:44.160Z,46.28
2018-09-27T17:13:44.152Z,46.68
2018-09-27T17:14:44.141Z,46.36
2018-09-27T17:15:44.149Z,46.96
2018-09-27T17:16:44.175Z,46.66
2018-09-27T17:17:44.152Z,46.86
2018-09-27T17:18:44.107Z,46.86
2018-09-27T17:19:44.094Z,46.68
2018-09-27T17:20:44.097Z,46.76
2018-09-27T17:21:44.059Z,46.88
2018-09-27T17:22:44.123Z,46.48
2018-09-27T17:23:44.113Z,46.58
2018-09-27T17:24:44.182Z,46.46
2018-09-27T17:25:44.015Z,46.48
2018-09-27T17:26:44.024Z,46.68
2018-09-27T17:27:43.996Z,46.78
2018-09-27T17:28:44.028Z,46.68
2018-09-27T17:29:44.035Z,46.88
2018-09-27T17:30:43.971Z,46.78
2018-09-27T17:31:44.088Z,46.88
2018-09-27T17:32:43.936Z,47.06
2018-09-27T17:33:43.926Z,46.98
2018-09-27T17:34:43.975Z,46.98
2018-09-27T17:35:44.083Z,47.18
2018-09-27T17:36:43.914Z,46.98
2018-09-27T17:37:43.942Z,46.98
2018-09-27T17:38:43.868Z,47.08
2018-09-27T17:39:43.857Z,46.88
2018-09-27T17:40:43.907Z,47.08
2018-09-27T17:41:43.853Z,47.08
2018-09-27T17:42:43.842Z,46.88
2018-09-27T17:43:43.956Z,46.98
2018-09-27T17:44:43.810Z,46.98
2018-09-27T17:45:43.819Z,47.08
2018-09-27T17:46:43.869Z,46.98
2018-09-27T17:47:43.784Z,46.98
2018-09-27T17:48:43.762Z,47.38
2018-09-27T17:49:43.842Z,47.36
2018-09-27T17:50:43.737Z,47.38
2018-09-27T17:51:43.728Z,47.18
2018-09-27T17:52:43.824Z,47.18
2018-09-27T17:53:43.703Z,47.08
2018-09-27T17:54:43.693Z,47.28
2018-09-27T17:55:43.877Z,47.66
2018-09-27T17:56:43.669Z,47.58
2018-09-27T17:57:43.658Z,47.48
2018-09-27T17:58:43.784Z,47.38
2018-09-27T17:59:43.635Z,47.48
2018-09-27T18:00:43.624Z,47.38
2018-09-27T18:01:43.650Z,47.48
2018-09-27T18:02:43.603Z,47.28
2018-09-27T18:03:43.604Z,47.28
2018-09-27T18:04:43.679Z,47.38
2018-09-27T18:05:43.586Z,47.38
2018-09-27T18:06:43.560Z,47.78
2018-09-27T18:07:43.618Z,47.38
2018-09-27T18:08:43.563Z,47.98
2018-09-27T18:09:43.528Z,47.38
2018-09-27T18:10:43.578Z,47.88
2018-09-27T18:11:43.525Z,47.98
2018-09-27T18:12:43.495Z,48.28
2018-09-27T18:13:43.537Z,47.78
2018-09-27T18:14:43.492Z,47.78
2018-09-27T18:15:43.459Z,47.78
2018-09-27T18:16:43.658Z,47.68
2018-09-27T18:17:43.502Z,47.68
2018-09-27T18:18:43.424Z,47.98
2018-09-27T18:19:43.506Z,47.88
2018-09-27T18:20:43.410Z,47.78
2018-09-27T18:21:43.419Z,47.98
2018-09-27T18:22:43.451Z,47.88
2018-09-27T18:23:43.375Z,47.88
2018-09-27T18:24:43.374Z,47.78
2018-09-27T18:25:43.430Z,47.98
2018-09-27T18:26:43.348Z,47.78
2018-09-27T18:27:43.373Z,47.98
2018-09-27T18:28:43.374Z,47.88
2018-09-27T18:29:43.325Z,47.88
2018-09-27T18:30:43.293Z,48.00
2018-09-27T18:31:43.306Z,47.88
2018-09-27T18:32:43.274Z,47.98
2018-09-27T18:33:43.259Z,48.10
2018-09-27T18:34:43.369Z,47.98
2018-09-27T18:35:43.254Z,47.58
2018-09-27T18:36:43.225Z,47.71
2018-09-27T18:37:43.241Z,47.68
2018-09-27T18:38:43.206Z,47.60
2018-09-27T18:39:43.195Z,47.38
2018-09-27T18:40:43.198Z,47.48
2018-09-27T18:41:43.172Z,47.48
2018-09-27T18:42:43.160Z,47.50
2018-09-27T18:43:43.149Z,47.38
2018-09-27T18:44:43.137Z,47.38
2018-09-27T18:45:43.139Z,47.58
2018-09-27T18:46:43.117Z,47.50
2018-09-27T18:47:43.106Z,47.60
2018-09-27T18:48:43.093Z,47.38
2018-09-27T18:49:43.083Z,47.48
2018-09-27T18:50:43.098Z,47.48
2018-09-27T18:51:43.063Z,47.50
2018-09-27T18:52:43.049Z,47.30
2018-09-27T18:53:43.039Z,47.60
2018-09-27T18:54:43.033Z,47.50
2018-09-27T18:55:43.016Z,47.60
2018-09-27T18:56:43.017Z,47.60
2018-09-27T18:57:43.055Z,47.40
2018-09-27T18:58:43.019Z,47.60
2018-09-27T18:59:42.972Z,47.50
2018-09-27T19:00:42.961Z,47.40
2018-09-27T19:01:42.967Z,47.50
2018-09-27T19:02:42.941Z,47.40
2018-09-27T19:03:42.927Z,47.80
2018-09-27T19:04:42.916Z,47.71
2018-09-27T19:05:42.907Z,47.50
2018-09-27T19:06:42.918Z,47.50
2018-09-27T19:07:42.883Z,47.60
2018-09-27T19:08:42.872Z,47.71
2018-09-27T19:09:42.861Z,47.50
2018-09-27T19:10:42.850Z,48.20
2018-09-27T19:11:42.853Z,48.30
2018-09-27T19:12:42.840Z,47.60
2018-09-27T19:13:42.823Z,47.60
2018-09-27T19:14:42.808Z,47.60
2018-09-27T19:15:42.794Z,47.90
2018-09-27T19:16:42.883Z,47.90
2018-09-27T19:17:42.790Z,48.00
2018-09-27T19:18:42.761Z,47.90
2018-09-27T19:19:42.752Z,47.80
2018-09-27T19:20:42.740Z,48.20
2018-09-27T19:21:42.728Z,48.70
2018-09-27T19:22:42.758Z,48.30
2018-09-27T19:23:42.707Z,48.10
2018-09-27T19:24:42.695Z,48.10
2018-09-27T19:25:42.684Z,48.50
2018-09-27T19:26:42.674Z,48.10
2018-09-27T19:27:42.678Z,48.20
2018-09-27T19:28:42.663Z,48.70
2018-09-27T19:29:42.643Z,48.10
2018-09-27T19:30:42.633Z,48.10
2018-09-27T19:31:42.620Z,48.10
2018-09-27T19:32:42.607Z,48.20
2018-09-27T19:33:42.610Z,48.50
2018-09-27T19:34:42.585Z,48.80
2018-09-27T19:35:42.575Z,48.80
2018-09-27T19:36:42.563Z,48.70
2018-09-27T19:37:42.551Z,48.20
2018-09-27T19:38:42.561Z,48.80
2018-09-27T19:39:42.529Z,48.60
2018-09-27T19:40:42.517Z,48.80
2018-09-27T19:41:42.508Z,48.80
2018-09-27T19:42:42.497Z,48.40
2018-09-27T19:43:42.484Z,48.40
2018-09-27T19:44:42.486Z,48.40
2018-09-27T19:45:42.462Z,48.20
2018-09-27T19:46:42.551Z,48.50
2018-09-27T19:47:42.441Z,48.50
2018-09-27T19:48:42.430Z,48.50
2018-09-27T19:49:42.434Z,48.40
2018-09-27T19:50:42.407Z,48.20
2018-09-27T19:51:42.402Z,48.60
2018-09-27T19:52:42.392Z,48.50
2018-09-27T19:53:42.374Z,48.10
2018-09-27T19:54:42.386Z,48.70
2018-09-27T19:55:42.353Z,48.50
2018-09-27T19:56:42.344Z,48.60
2018-09-27T19:57:42.332Z,48.20
2018-09-27T19:58:42.321Z,48.40
2018-09-27T19:59:42.311Z,48.40
2018-09-27T20:00:42.311Z,48.40
2018-09-27T20:01:42.302Z,48.50
2018-09-27T20:02:42.372Z,48.40
2018-09-27T20:03:42.263Z,48.30
2018-09-27T20:04:42.409Z,48.30
2018-09-27T20:05:42.261Z,48.30
2018-09-27T20:06:42.230Z,48.00
2018-09-27T20:07:42.221Z,48.30
2018-09-27T20:08:42.208Z,48.30
2018-09-27T20:09:42.200Z,48.10
2018-09-27T20:10:42.212Z,48.20
2018-09-27T20:11:42.175Z,48.20
2018-09-27T20:12:42.165Z,48.32
2018-09-27T20:13:42.155Z,48.10
2018-09-27T20:14:42.149Z,48.30
2018-09-27T20:15:42.171Z,48.00
2018-09-27T20:16:42.216Z,48.30
2018-09-27T20:17:42.109Z,48.10
2018-09-27T20:18:42.100Z,48.30
2018-09-27T20:19:42.086Z,48.50
2018-09-27T20:20:42.075Z,48.30
2018-09-27T20:21:42.079Z,48.30
2018-09-27T20:22:42.065Z,47.90
2018-09-27T20:23:42.047Z,48.30
2018-09-27T20:24:42.036Z,48.40
2018-09-27T20:25:42.020Z,48.43
2018-09-27T20:26:42.033Z,48.30
2018-09-27T20:27:41.997Z,48.40
2018-09-27T20:28:41.987Z,48.60
2018-09-27T20:29:41.976Z,48.50
2018-09-27T20:30:41.968Z,48.43
2018-09-27T20:31:41.982Z,48.20
2018-09-27T20:32:41.949Z,48.22
2018-09-27T20:33:41.938Z,48.40
2018-09-27T20:34:41.992Z,48.20
2018-09-27T20:35:41.909Z,48.40
2018-09-27T20:36:41.899Z,48.20
2018-09-27T20:37:41.904Z,48.43
2018-09-27T20:38:41.876Z,48.63
2018-09-27T20:39:41.865Z,48.22
2018-09-27T20:40:41.857Z,48.40
2018-09-27T20:41:41.846Z,48.43
2018-09-27T20:42:41.848Z,48.63
2018-09-27T20:43:41.823Z,48.20
2018-09-27T20:44:41.810Z,48.40
2018-09-27T20:45:41.799Z,48.20
2018-09-27T20:46:41.789Z,48.40
2018-09-27T20:47:41.874Z,48.63
2018-09-27T20:48:41.767Z,48.60
2018-09-27T20:49:41.754Z,48.40
2018-09-27T20:50:41.743Z,48.40
2018-09-27T20:51:41.733Z,48.60
2018-09-27T20:52:41.743Z,48.40
2018-09-27T20:53:41.713Z,48.43
2018-09-27T20:54:41.698Z,48.43
2018-09-27T20:55:41.689Z,48.80
2018-09-27T20:56:41.678Z,48.40
2018-09-27T20:57:41.666Z,49.02
2018-09-27T20:58:41.669Z,48.72
2018-09-27T20:59:41.645Z,48.93
2018-09-27T21:00:41.636Z,48.63
2018-09-27T21:01:41.622Z,48.90
2018-09-27T21:02:41.611Z,48.52
2018-09-27T21:03:41.643Z,48.82
2018-09-27T21:04:41.589Z,48.70
2018-09-27T21:05:41.577Z,48.60
2018-09-27T21:06:41.569Z,48.72
2018-09-27T21:07:41.556Z,49.02
2018-09-27T21:08:41.568Z,48.72
2018-09-27T21:09:41.535Z,49.10
2018-09-27T21:10:41.524Z,48.72
2018-09-27T21:11:41.511Z,48.63
2018-09-27T21:12:41.503Z,48.52
2018-09-27T21:13:41.490Z,48.52
2018-09-27T21:14:41.490Z,48.72
2018-09-27T21:15:41.467Z,48.43
2018-09-27T21:16:41.459Z,48.52
2018-09-27T21:17:41.445Z,48.82
2018-09-27T21:18:41.440Z,49.12
2018-09-27T21:19:41.440Z,48.72
2018-09-27T21:20:41.414Z,48.52
2018-09-27T21:21:41.402Z,48.93
2018-09-27T21:22:41.390Z,48.82
2018-09-27T21:23:41.379Z,48.63
2018-09-27T21:24:41.380Z,48.72
2018-09-27T21:25:41.361Z,48.43
2018-09-27T21:26:41.348Z,48.52
2018-09-27T21:27:41.334Z,48.52
2018-09-27T21:28:41.324Z,48.63
2018-09-27T21:29:41.334Z,48.52
2018-09-27T21:30:41.307Z,48.43
2018-09-27T21:31:41.291Z,48.43
2018-09-27T21:32:41.283Z,48.63
2018-09-27T21:33:41.270Z,48.43
2018-09-27T21:34:41.257Z,48.43
2018-09-27T21:35:41.264Z,48.93
2018-09-27T21:36:41.236Z,48.43
2018-09-27T21:37:41.224Z,48.93
2018-09-27T21:38:41.213Z,48.93
2018-09-27T21:39:41.207Z,48.93
2018-09-27T21:40:41.205Z,48.82
2018-09-27T21:41:41.182Z,48.63
2018-09-27T21:42:41.169Z,48.82
2018-09-27T21:43:41.158Z,48.93
2018-09-27T21:44:41.152Z,49.02
2018-09-27T21:45:41.154Z,48.63
2018-09-27T21:46:41.125Z,48.72
2018-09-27T21:47:41.115Z,49.42
2018-09-27T21:48:41.106Z,48.82
2018-09-27T21:49:41.092Z,48.82
2018-09-27T21:50:41.105Z,48.82
2018-09-27T21:51:41.072Z,49.42
2018-09-27T21:52:41.061Z,48.82
2018-09-27T21:53:41.048Z,48.82
2018-09-27T21:54:41.037Z,48.82
2018-09-27T21:55:41.028Z,48.63
2018-09-27T21:56:41.031Z,48.63
2018-09-27T21:57:41.008Z,48.63
2018-09-27T21:58:40.995Z,48.82
2018-09-27T21:59:40.986Z,48.72
2018-09-27T22:00:40.974Z,48.63
2018-09-27T22:01:40.972Z,48.72
2018-09-27T22:02:40.949Z,48.82
2018-09-27T22:03:40.959Z,48.72
2018-09-27T22:04:40.927Z,48.82
2018-09-27T22:05:40.915Z,48.63
2018-09-27T22:06:40.926Z,48.63
2018-09-27T22:07:40.895Z,48.63
2018-09-27T22:08:40.883Z,48.72
2018-09-27T22:09:40.873Z,48.72
2018-09-27T22:10:40.861Z,48.72
2018-09-27T22:11:40.852Z,48.72
2018-09-27T22:12:40.856Z,48.72
2018-09-27T22:13:40.828Z,48.72
2018-09-27T22:14:40.819Z,48.93
2018-09-27T22:15:40.808Z,48.63
2018-09-27T22:16:40.795Z,48.63
2018-09-27T22:17:40.796Z,48.72
2018-09-27T22:18:40.777Z,48.63